Montreal Mirabel, Quebec

9:14 AM EDT on August 29, 2015 (GMT -0400)
Montreal International (Mirabel) | | Change Station
CLOSE
Current Station
Airport
Location: Montreal Mirabel,
Elevation: 269 ft
Nearby Weather Stations

Elev 269 ft 45.68 °N, 74.04 °W | Updated 14 minutes ago

Overcast
Overcast
59 °F
Feels Like 59 °F
N
6
Wind Variable Wind from WSW

Today is forecast to be nearly the same temperature as yesterday.

Today
High -- | Low -- °F
--% Chance of Precip.
Yesterday
High -- | Low -- °F
Precip. -- in
6:13 AM 7:40 PM
Full, 100% visible
Pressure 30.16 in
Visibility 6.0 miles
Clouds Scattered Clouds 400 ft
Mostly Cloudy 5000 ft
Mostly Cloudy 10000 ft
Overcast 25000 ft
Dew Point 57 °F
Humidity 94%
Rainfall 0.00 in
Snow Depth Not available.
UV 1 out of 12
Pollen Not available.
Air Quality Not available.
Flu Activity Not available.
METAR CYMX 291300Z 25005KT 190V270 6SM BR SCT004 BKN050 BKN100 OVC250 15/14 A3016 RMK SF3SC3AC1CI1 VIS NW QUAD 3 SLP213
Pressure 30.16 in
Visibility 6.0 miles
Clouds Scattered Clouds 400 ft
Mostly Cloudy 5000 ft
Mostly Cloudy 10000 ft
Overcast 25000 ft
Dew Point 57 °F
Humidity 94%
Rainfall 0.00 in
Snow Depth Not available.
UV 1 out of 12
Pollen Not available.
Air Quality Not available.
Flu Activity Not available.
METAR CYMX 291300Z 25005KT 190V270 6SM BR SCT004 BKN050 BKN100 OVC250 15/14 A3016 RMK SF3SC3AC1CI1 VIS NW QUAD 3 SLP213

10-Day Weather Forecast

×

Almanac

Astronomy

Aug. 29, 2015 Rise Set
Actual Time
Civil Twilight
Nautical Twilight
Astronomical Twilight
Moon
Length of Visible Light
Length of Day
Tomorrow will be .
, % of the Moon is Illuminated

Today's Extremes

Country Highs Country Lows

Community

WunderPhotos

Upload Photos

1,850,681 photos uploaded!

WunderBlogs® & News

Nearby

Air Quality

  Air Quality AQ Index Pollutant
Not available.

Snow Depth

Station Depth Elevation

Earthquake Activity

City Distance Mag. Time & Date
Minimum magnitude displayed is 2.5.

Coastal Water Temperatures

Place Temperature

Stations

Nearby Weather Stations

Station Location Temp. Windchill Dew Point Humidity Wind Precip. Elev Updated Type